Time;durP1;ratioP1;P1;durP2;ratioP2;P2;SDS_P1;SDS_P2;PMS_P1;PMS_P2;Temp;Humidity;BMP_temperature;BMP_pressure;BME280_temperature;BME280_humidity;BME280_pressure;Samples;Min_cycle;Max_cycle;Signal;HPM_P1;HPM_P2
2023/06/05 00:00:24;;;;;;;3.60;3.30;;;;;;;12.96;81.69;102389.13;5013644;28;20337;-84
2023/06/05 00:02:49;;;;;;;4.43;3.83;;;;;;;12.92;81.75;102395.38;4982069;28;20065;-84
2023/06/05 00:05:15;;;;;;;6.38;3.53;;;;;;;12.86;81.91;102391.16;4983629;28;20027;-84
2023/06/05 00:07:41;;;;;;;4.57;3.60;;;;;;;12.77;83.13;102394.00;4947192;28;20054;-84
2023/06/05 00:10:07;;;;;;;3.75;3.45;;;;;;;12.79;82.91;102391.34;4962487;28;20039;-84
2023/06/05 00:12:34;;;;;;;4.50;3.50;;;;;;;12.61;83.47;102403.19;4992974;28;20394;-84
2023/06/05 00:14:59;;;;;;;4.63;3.75;;;;;;;12.72;82.95;102398.50;4998893;28;20540;-84
2023/06/05 00:17:25;;;;;;;8.73;4.18;;;;;;;12.52;83.99;102392.88;4974083;28;20034;-84
2023/06/05 00:19:50;;;;;;;4.90;4.30;;;;;;;12.52;84.55;102390.25;4991032;28;20046;-84
2023/06/05 00:22:16;;;;;;;6.75;4.45;;;;;;;12.54;84.38;102399.81;4999208;28;20038;-84
2023/06/05 00:24:41;;;;;;;4.93;4.38;;;;;;;12.53;84.62;102386.72;4999258;28;20049;-84
2023/06/05 00:27:07;;;;;;;5.22;4.13;;;;;;;12.54;84.14;102391.09;4965479;28;20424;-84
2023/06/05 00:29:32;;;;;;;5.78;3.60;;;;;;;12.57;84.25;102391.88;4981533;28;20068;-85
2023/06/05 00:31:57;;;;;;;4.70;4.18;;;;;;;12.56;84.08;102392.75;4998365;28;20034;-84
2023/06/05 00:34:23;;;;;;;8.50;3.92;;;;;;;12.45;84.71;102398.28;4965112;28;20030;-84
2023/06/05 00:36:51;;;;;;;5.40;4.13;;;;;;;12.33;85.27;102390.66;4954460;28;20388;-84
2023/06/05 00:39:20;;;;;;;6.50;4.38;;;;;;;12.32;85.42;102394.22;4980037;28;20379;-84
2023/06/05 00:41:45;;;;;;;4.10;3.67;;;;;;;12.38;85.50;102387.94;4963181;28;20035;-84
2023/06/05 00:44:11;;;;;;;4.13;3.83;;;;;;;12.44;84.90;102395.69;4962101;28;20236;-84
2023/06/05 00:46:38;;;;;;;6.15;4.50;;;;;;;12.46;84.93;102393.88;4962651;28;20111;-84
2023/06/05 00:49:04;;;;;;;5.53;4.68;;;;;;;12.47;84.95;102396.47;4979132;28;20053;-84
2023/06/05 00:51:30;;;;;;;5.97;3.78;;;;;;;12.62;83.83;102397.84;4962697;28;20026;-84
2023/06/05 00:53:55;;;;;;;4.28;3.97;;;;;;;12.56;84.21;102391.91;4982961;28;20046;-84
2023/06/05 00:56:22;;;;;;;7.47;4.45;;;;;;;12.45;84.92;102387.75;4966817;28;20094;-84
2023/06/05 00:58:48;;;;;;;4.85;4.38;;;;;;;12.35;85.34;102388.00;4963813;28;20249;-84
2023/06/05 01:01:14;;;;;;;6.80;4.70;;;;;;;12.30;85.71;102385.50;4998626;28;20030;-84
2023/06/05 01:03:40;;;;;;;6.25;4.43;;;;;;;12.31;85.29;102387.22;4998419;28;20053;-84
2023/06/05 01:06:06;;;;;;;4.85;4.45;;;;;;;12.23;86.13;102387.41;4978749;28;20042;-84
2023/06/05 01:08:40;;;;;;;5.57;4.35;;;;;;;12.21;85.87;102383.94;4962350;28;20039;-84
2023/06/05 01:11:28;;;;;;;6.20;4.53;;;;;;;12.17;86.52;102390.19;4997231;28;20073;-84
2023/06/05 01:14:12;;;;;;;6.03;5.03;;;;;;;12.12;86.41;102386.78;4995767;28;20105;-84
2023/06/05 01:16:39;;;;;;;6.07;4.97;;;;;;;12.10;86.70;102380.72;4978989;28;20046;-84
2023/06/05 01:19:05;;;;;;;5.32;4.82;;;;;;;12.05;86.70;102378.19;4961464;28;20333;-84
2023/06/05 01:21:31;;;;;;;6.22;4.85;;;;;;;12.03;87.24;102382.59;4979219;28;20118;-84
2023/06/05 01:24:00;;;;;;;6.75;4.40;;;;;;;12.03;87.22;102377.34;4985708;28;20042;-84
2023/06/05 01:26:36;;;;;;;9.30;5.10;;;;;;;12.01;87.34;102376.53;4996126;28;20031;-84
2023/06/05 01:29:06;;;;;;;7.28;4.65;;;;;;;11.99;87.42;102380.94;4978784;28;20074;-84
2023/06/05 01:31:36;;;;;;;7.20;4.93;;;;;;;11.93;87.62;102373.19;4979479;28;20253;-84
2023/06/05 01:34:07;;;;;;;7.93;5.18;;;;;;;11.98;87.24;102375.72;4978567;28;20113;-84
2023/06/05 01:36:33;;;;;;;7.40;5.30;;;;;;;12.05;86.93;102369.44;4979326;28;20034;-84
2023/06/05 01:39:00;;;;;;;8.07;5.25;;;;;;;11.91;87.46;102377.59;4978800;28;20085;-84
2023/06/05 01:41:27;;;;;;;7.43;5.05;;;;;;;11.93;87.55;102373.19;4994722;28;20033;-84
2023/06/05 01:43:54;;;;;;;4.97;4.63;;;;;;;11.99;87.34;102372.19;4996989;28;20222;-84
2023/06/05 01:46:22;;;;;;;12.05;6.28;;;;;;;11.89;87.45;102374.13;4997998;28;20041;-84
2023/06/05 01:48:48;;;;;;;6.80;5.72;;;;;;;11.87;87.45;102374.16;4980108;28;20097;-84
2023/06/05 01:51:13;;;;;;;6.90;5.05;;;;;;;11.99;87.10;102367.81;4990984;28;20038;-84
2023/06/05 01:53:39;;;;;;;6.70;5.10;;;;;;;11.93;86.67;102373.19;4997996;28;20081;-84
2023/06/05 01:56:06;;;;;;;6.93;5.03;;;;;;;11.95;86.63;102363.53;4979657;28;20046;-84
2023/06/05 01:58:32;;;;;;;10.85;5.60;;;;;;;11.88;87.16;102357.53;4980455;28;20022;-84
2023/06/05 02:00:57;;;;;;;6.13;5.55;;;;;;;11.78;87.25;102360.38;4979559;28;20081;-84
2023/06/05 02:03:23;;;;;;;7.18;4.57;;;;;;;11.82;87.31;102359.41;4977112;28;20034;-84
2023/06/05 02:05:51;;;;;;;9.98;5.53;;;;;;;11.76;87.16;102357.78;4944838;28;20042;-84
2023/06/05 02:08:19;;;;;;;6.47;5.13;;;;;;;11.66;87.84;102356.22;4979160;28;20034;-84
2023/06/05 02:10:47;;;;;;;10.68;4.90;;;;;;;11.66;87.90;102356.22;4997707;28;20041;-84
2023/06/05 02:13:15;;;;;;;6.43;4.95;;;;;;;11.62;88.23;102358.06;4963881;28;20042;-84
2023/06/05 02:15:41;;;;;;;5.32;4.90;;;;;;;11.59;88.27;102362.50;4961545;28;20058;-84
2023/06/05 02:18:07;;;;;;;6.88;5.28;;;;;;;11.60;88.24;102354.59;4978556;28;20047;-81
2023/06/05 02:20:35;;;;;;;5.03;4.63;;;;;;;11.65;87.96;102349.28;4978562;28;20039;-81
2023/06/05 02:23:01;;;;;;;5.90;5.40;;;;;;;11.65;87.81;102349.28;4978406;28;20384;-80
2023/06/05 02:25:26;;;;;;;5.65;4.97;;;;;;;11.69;87.70;102346.53;4978620;28;20031;-81
2023/06/05 02:27:56;;;;;;;7.22;4.88;;;;;;;11.71;87.39;102350.03;4960944;28;20110;-81
2023/06/05 02:30:21;;;;;;;6.30;5.10;;;;;;;11.74;87.09;102350.84;4964446;28;20057;-80
2023/06/05 02:32:48;;;;;;;5.68;5.00;;;;;;;11.80;86.72;102350.69;4981699;28;20049;-80
2023/06/05 02:35:14;;;;;;;5.38;4.88;;;;;;;11.76;86.93;102349.91;4948410;28;20054;-80
2023/06/05 02:37:44;;;;;;;7.78;5.13;;;;;;;11.75;86.96;102352.56;4965096;28;20334;-80
2023/06/05 02:40:11;;;;;;;7.75;4.85;;;;;;;11.68;87.13;102354.47;4981901;28;20077;-81
2023/06/05 02:42:37;;;;;;;5.47;4.97;;;;;;;11.64;87.19;102355.41;4964562;28;20034;-80
2023/06/05 02:45:03;;;;;;;6.88;4.70;;;;;;;11.70;86.99;102356.16;4981383;28;20114;-81
2023/06/05 02:47:29;;;;;;;6.30;4.43;;;;;;;11.65;86.88;102355.38;4981910;28;20027;-81
2023/06/05 02:49:57;;;;;;;6.60;5.45;;;;;;;11.55;87.16;102359.13;4963857;28;20113;-81
2023/06/05 02:52:22;;;;;;;5.45;4.78;;;;;;;11.45;88.07;102353.16;4982239;28;20370;-84
2023/06/05 02:54:48;;;;;;;8.77;5.13;;;;;;;11.49;87.96;102356.59;4968334;28;20027;-84
2023/06/05 02:57:15;;;;;;;7.10;4.70;;;;;;;11.45;87.42;102353.16;4974484;28;20039;-84
2023/06/05 02:59:41;;;;;;;5.30;4.80;;;;;;;11.48;87.61;102350.50;4981985;28;20042;-84
2023/06/05 03:02:06;;;;;;;7.53;5.20;;;;;;;11.46;87.67;102341.78;4981279;28;20050;-84
2023/06/05 03:04:32;;;;;;;5.38;4.78;;;;;;;11.49;87.30;102333.84;4964840;28;20049;-84
2023/06/05 03:07:02;;;;;;;6.97;4.97;;;;;;;11.31;87.89;102342.09;4960435;28;20057;-84
2023/06/05 03:09:28;;;;;;;9.38;5.80;;;;;;;11.38;87.61;102337.59;4974702;28;20069;-84
2023/06/05 03:11:53;;;;;;;9.55;5.05;;;;;;;11.28;87.89;102342.16;4981006;28;20026;-84
2023/06/05 03:14:19;;;;;;;5.97;4.85;;;;;;;11.21;88.60;102344.03;4980960;28;20375;-84
2023/06/05 03:16:45;;;;;;;6.60;5.13;;;;;;;11.24;88.46;102335.22;4979561;28;20058;-84
2023/06/05 03:19:11;;;;;;;7.50;5.15;;;;;;;11.25;88.05;102343.06;4981404;28;20322;-84
2023/06/05 03:21:39;;;;;;;10.18;5.13;;;;;;;11.21;88.33;102338.78;4981185;28;20211;-84
2023/06/05 03:24:06;;;;;;;7.45;5.10;;;;;;;11.14;88.28;102337.19;4999354;28;20034;-84
2023/06/05 03:26:32;;;;;;;6.90;4.80;;;;;;;11.13;88.33;102335.44;4983135;28;20049;-84
2023/06/05 03:28:58;;;;;;;7.57;5.13;;;;;;;11.14;88.14;102329.31;4982519;28;20035;-84
2023/06/05 03:31:23;;;;;;;7.30;4.72;;;;;;;11.16;88.35;102330.13;4963923;28;20050;-84
2023/06/05 03:33:49;;;;;;;7.07;5.18;;;;;;;11.20;87.62;102331.81;4980896;28;20043;-84
2023/06/05 03:36:17;;;;;;;6.65;5.35;;;;;;;11.19;87.78;102335.34;4947787;28;20234;-84
2023/06/05 03:38:43;;;;;;;7.57;5.20;;;;;;;11.13;87.66;102338.06;4964266;28;20467;-84
2023/06/05 03:41:09;;;;;;;8.23;4.95;;;;;;;11.06;88.17;102331.19;4963672;28;20330;-84
2023/06/05 03:43:34;;;;;;;9.93;5.55;;;;;;;11.17;88.07;102331.88;4996387;28;20068;-84
2023/06/05 03:46:00;;;;;;;5.80;5.20;;;;;;;11.14;87.63;102327.53;4962927;28;20038;-84
2023/06/05 03:48:26;;;;;;;8.93;5.00;;;;;;;11.23;87.48;102325.66;4965173;28;20046;-84
2023/06/05 03:50:53;;;;;;;6.00;5.32;;;;;;;11.27;86.97;102333.41;4981736;28;20360;-84
2023/06/05 03:53:19;;;;;;;10.38;5.40;;;;;;;11.22;86.64;102330.00;5000093;28;20034;-84
2023/06/05 03:55:45;;;;;;;12.18;5.88;;;;;;;11.10;87.34;102332.88;4982256;28;20065;-84
2023/06/05 03:58:13;;;;;;;8.57;4.97;;;;;;;11.11;87.51;102335.50;4982110;28;20277;-84
2023/06/05 04:00:43;;;;;;;9.57;5.65;;;;;;;11.06;87.56;102341.69;4982208;28;20022;-84
2023/06/05 04:03:10;;;;;;;5.93;4.80;;;;;;;11.13;87.19;102341.56;4966316;28;20026;-84
2023/06/05 04:05:37;;;;;;;7.85;5.95;;;;;;;11.03;87.06;102336.53;4981592;28;20037;-84
2023/06/05 04:08:03;;;;;;;7.47;5.20;;;;;;;11.01;87.39;102338.31;4988319;28;20050;-84
2023/06/05 04:10:29;;;;;;;6.75;5.25;;;;;;;11.05;87.16;102339.97;4951907;28;20050;-84
2023/06/05 04:12:55;;;;;;;7.07;4.78;;;;;;;11.03;87.19;102347.00;4980090;28;20372;-84
2023/06/05 04:15:20;;;;;;;8.55;5.53;;;;;;;10.94;87.66;102348.03;4980342;28;20065;-84
2023/06/05 04:17:46;;;;;;;9.88;5.35;;;;;;;11.04;87.37;102340.84;4962878;28;20102;-84
2023/06/05 04:20:14;;;;;;;13.63;5.30;;;;;;;11.01;87.05;102348.78;4982264;28;20345;-84
2023/06/05 04:22:43;;;;;;;5.40;5.00;;;;;;;11.03;87.06;102345.25;4994047;28;20046;-84
2023/06/05 04:25:10;;;;;;;;;;;;;;;11.05;87.04;102350.47;4980378;28;20329;-84
2023/06/05 04:27:37;;;;;;;10.45;4.90;;;;;;;11.03;87.09;102341.75;4980392;28;19917;-84
2023/06/05 04:30:07;;;;;;;8.77;5.15;;;;;;;11.05;86.96;102339.97;4962770;28;20054;-84
2023/06/05 04:32:34;;;;;;;8.65;4.43;;;;;;;11.07;86.75;102344.28;4982052;28;20210;-84
2023/06/05 04:35:00;;;;;;;5.20;4.70;;;;;;;11.15;86.75;102346.75;4998328;28;20038;-84
2023/06/05 04:37:25;;;;;;;5.85;5.35;;;;;;;11.15;86.71;102349.38;4965566;28;20058;-84
2023/06/05 04:39:51;;;;;;;9.15;5.45;;;;;;;11.11;86.61;102347.72;4980809;28;20038;-84
2023/06/05 04:42:17;;;;;;;8.45;5.47;;;;;;;11.19;86.74;102343.19;4999365;28;20048;-84
2023/06/05 04:44:43;;;;;;;6.18;5.57;;;;;;;11.25;86.09;102350.94;4981238;28;20046;-84
2023/06/05 04:47:08;;;;;;;7.68;5.57;;;;;;;11.21;86.19;102356.28;4981171;28;20042;-84
2023/06/05 04:49:34;;;;;;;6.03;5.43;;;;;;;11.22;86.76;102361.47;4981124;28;20064;-84
2023/06/05 04:51:59;;;;;;;6.80;5.55;;;;;;;11.22;86.33;102358.00;4997438;28;20117;-84
2023/06/05 04:54:25;;;;;;;6.35;4.45;;;;;;;11.30;86.96;102364.84;4981329;28;20097;-84
2023/06/05 04:56:52;;;;;;;5.53;5.05;;;;;;;11.40;86.17;102364.66;4980438;28;20349;-84
2023/06/05 04:59:18;;;;;;;6.65;4.80;;;;;;;11.39;85.99;102368.16;4986589;28;20014;-84
2023/06/05 05:01:43;;;;;;;8.60;5.25;;;;;;;11.40;86.09;102369.91;4979830;28;20230;-84
2023/06/05 05:04:09;;;;;;;8.35;5.00;;;;;;;11.34;86.37;102363.88;4962005;28;20249;-84
2023/06/05 05:06:34;;;;;;;7.40;5.30;;;;;;;11.36;86.58;102369.09;4979565;28;20061;-84
2023/06/05 05:09:00;;;;;;;9.07;5.45;;;;;;;11.38;86.64;102379.56;4977861;28;20034;-84
2023/06/05 05:11:26;;;;;;;6.63;5.50;;;;;;;11.40;86.54;102367.28;4998596;28;20030;-84
2023/06/05 05:13:52;;;;;;;5.63;5.07;;;;;;;11.40;86.47;102372.53;4998151;28;20363;-84
2023/06/05 05:16:17;;;;;;;9.35;5.43;;;;;;;11.39;87.07;102365.53;4998257;28;20085;-84
2023/06/05 05:18:44;;;;;;;6.45;5.63;;;;;;;11.45;86.75;102361.03;4993820;28;20042;-84
2023/06/05 05:21:10;;;;;;;8.40;5.55;;;;;;;11.47;86.89;102354.00;4961505;28;20046;-84
2023/06/05 05:23:35;;;;;;;6.65;5.68;;;;;;;11.53;87.11;102360.88;4979707;28;20042;-84
2023/06/05 05:26:01;;;;;;;6.57;5.13;;;;;;;11.60;87.09;102359.84;4958384;28;20034;-84
2023/06/05 05:28:29;;;;;;;6.10;5.50;;;;;;;11.62;86.77;102358.06;4964341;28;20233;-84
2023/06/05 05:30:58;;;;;;;13.00;5.45;;;;;;;11.66;86.56;102359.75;4997827;28;20042;-84
2023/06/05 05:33:24;;;;;;;10.98;6.25;;;;;;;11.70;86.40;102369.28;4980722;28;20038;-84
2023/06/05 05:35:50;;;;;;;6.78;5.10;;;;;;;11.69;86.61;102364.91;4994996;28;20049;-84
2023/06/05 05:38:16;;;;;;;5.93;5.38;;;;;;;11.74;86.39;102369.22;4995312;28;20229;-84
2023/06/05 05:40:41;;;;;;;5.45;4.97;;;;;;;11.74;86.03;102363.97;4995459;28;20419;-84
2023/06/05 05:43:06;;;;;;;7.20;5.88;;;;;;;11.87;86.05;102362.78;4972142;28;20042;-84
2023/06/05 05:45:32;;;;;;;6.88;5.53;;;;;;;11.83;86.13;102362.00;4984337;28;20037;-84
2023/06/05 05:47:57;;;;;;;5.93;5.18;;;;;;;11.80;86.46;102358.56;4970726;28;20041;-84
2023/06/05 05:50:23;;;;;;;10.55;5.85;;;;;;;11.81;86.17;102355.94;4970658;28;20065;-84
2023/06/05 05:52:48;;;;;;;6.28;5.47;;;;;;;11.86;86.91;102355.81;4981756;28;20047;-84
2023/06/05 05:55:14;;;;;;;6.68;5.55;;;;;;;11.91;86.68;102356.59;4972876;28;20312;-84
2023/06/05 05:57:39;;;;;;;5.57;5.05;;;;;;;11.93;86.58;102349.56;4993652;28;20200;-84
2023/06/05 06:00:12;;;;;;;6.72;5.50;;;;;;;12.00;86.81;102355.53;4972473;28;20058;-84
2023/06/05 06:02:41;;;;;;;9.05;5.10;;;;;;;12.05;86.11;102349.28;4985318;28;20031;-84
2023/06/05 06:05:08;;;;;;;7.03;4.88;;;;;;;12.14;85.76;102361.34;4987796;28;20207;-83
2023/06/05 06:07:35;;;;;;;8.25;5.13;;;;;;;12.21;85.48;102365.56;4991434;28;20141;-84
2023/06/05 06:10:01;;;;;;;5.90;5.38;;;;;;;12.27;85.52;102368.03;4992944;28;20364;-84
2023/06/05 06:12:27;;;;;;;5.82;5.20;;;;;;;12.25;85.02;102369.00;4967305;28;20030;-84
2023/06/05 06:14:56;;;;;;;5.35;4.85;;;;;;;12.34;84.73;102368.78;4965141;28;20043;-84
2023/06/05 06:17:21;;;;;;;;;;;;;;;12.43;84.17;102362.44;4984408;28;20053;-84
2023/06/05 06:19:48;;;;;;;6.37;5.10;;;;;;;12.46;83.79;102363.22;4971964;28;19922;-83
2023/06/05 06:22:14;;;;;;;6.60;4.72;;;;;;;12.51;84.25;102362.25;4966698;28;20296;-84
2023/06/05 06:24:41;;;;;;;5.95;5.40;;;;;;;12.53;83.99;102363.91;4984692;28;20125;-84
2023/06/05 06:27:08;;;;;;;6.75;5.30;;;;;;;12.55;83.75;102366.50;4983763;28;20043;-84
2023/06/05 06:29:34;;;;;;;6.57;4.90;;;;;;;12.53;83.96;102368.31;4992239;28;20065;-84
2023/06/05 06:32:00;;;;;;;6.18;4.70;;;;;;;12.56;83.43;102374.38;4986088;28;20121;-84
2023/06/05 06:34:26;;;;;;;4.97;4.47;;;;;;;12.60;83.25;102362.00;4957831;28;20030;-84
2023/06/05 06:36:51;;;;;;;5.50;5.00;;;;;;;12.57;83.07;102375.22;4993408;28;20049;-84
2023/06/05 06:39:18;;;;;;;5.43;4.75;;;;;;;12.56;83.20;102373.50;4994110;28;20244;-84
2023/06/05 06:41:44;;;;;;;5.32;4.75;;;;;;;12.51;83.29;102375.38;4963828;28;20428;-84
2023/06/05 06:44:10;;;;;;;5.25;4.53;;;;;;;12.55;83.54;102370.03;4989061;28;20038;-83
2023/06/05 06:46:36;;;;;;;5.03;4.55;;;;;;;12.60;83.87;102373.38;4992900;28;20043;-84
2023/06/05 06:49:02;;;;;;;9.32;4.97;;;;;;;12.68;83.63;102375.84;4992977;28;20409;-84
2023/06/05 06:51:27;;;;;;;6.68;5.05;;;;;;;12.65;83.58;102371.50;4976879;28;20069;-84
2023/06/05 06:53:53;;;;;;;5.63;4.97;;;;;;;12.67;82.89;102376.72;4993661;28;20076;-84
2023/06/05 06:56:18;;;;;;;6.45;4.88;;;;;;;12.75;83.16;102376.53;4962109;28;20042;-84
2023/06/05 06:58:45;;;;;;;6.13;4.32;;;;;;;12.74;83.07;102373.03;4981136;28;20052;-84
2023/06/05 07:01:11;;;;;;;4.57;4.18;;;;;;;12.85;83.15;102376.25;4990953;28;20080;-84
2023/06/05 07:03:38;;;;;;;4.65;3.88;;;;;;;12.95;82.53;102374.28;4976755;28;20412;-84
2023/06/05 07:06:03;;;;;;;3.67;3.38;;;;;;;13.07;80.92;102388.84;4978792;28;20436;-84
2023/06/05 07:08:29;;;;;;;8.85;3.70;;;;;;;13.11;79.81;102387.00;4995271;28;20074;-84
2023/06/05 07:10:55;;;;;;;4.32;3.10;;;;;;;13.18;79.92;102383.31;4983435;28;20046;-84
2023/06/05 07:13:21;;;;;;;5.32;3.53;;;;;;;13.23;79.60;102382.28;4970779;28;20038;-84
2023/06/05 07:15:47;;;;;;;6.95;3.65;;;;;;;13.26;79.39;102383.94;4987572;28;20430;-84
2023/06/05 07:18:12;;;;;;;14.98;4.43;;;;;;;13.34;79.70;102383.78;4992059;28;20120;-84
2023/06/05 07:20:38;;;;;;;5.60;3.00;;;;;;;13.37;78.96;102389.84;4975016;28;20408;-84
2023/06/05 07:23:03;;;;;;;4.75;3.50;;;;;;;13.41;79.17;102382.72;4988439;28;20026;-84
2023/06/05 07:25:29;;;;;;;6.10;3.80;;;;;;;13.48;80.39;102378.13;4978211;28;20333;-84
2023/06/05 07:27:54;;;;;;;5.05;3.20;;;;;;;13.56;80.33;102379.63;4978280;28;20065;-84
2023/06/05 07:30:20;;;;;;;16.38;4.25;;;;;;;13.61;80.95;102371.63;4989055;28;20038;-84
2023/06/05 07:32:45;;;;;;;5.35;3.72;;;;;;;13.63;81.19;102378.56;4963844;28;20039;-84
2023/06/05 07:35:12;;;;;;;5.05;3.63;;;;;;;13.66;81.56;102376.72;4966145;28;20053;-83
2023/06/05 07:37:38;;;;;;;10.32;3.72;;;;;;;13.66;81.79;102376.72;4977244;28;20041;-84
2023/06/05 07:40:05;;;;;;;4.72;3.67;;;;;;;13.66;80.46;102375.00;4985050;28;20052;-83
2023/06/05 07:42:31;;;;;;;5.85;3.70;;;;;;;13.70;79.88;102373.97;4968936;28;20057;-84
2023/06/05 07:44:56;;;;;;;5.43;3.60;;;;;;;13.65;79.22;102372.41;4974718;28;20364;-84
2023/06/05 07:47:22;;;;;;;5.10;3.60;;;;;;;13.67;79.11;102375.84;4971670;28;20034;-84
2023/06/05 07:49:59;;;;;;;4.95;3.20;;;;;;;13.70;78.58;102378.38;4955295;28;20074;-84
2023/06/05 07:52:25;;;;;;;9.27;3.60;;;;;;;13.74;78.83;102380.03;4990065;28;20415;-85
2023/06/05 07:54:50;;;;;;;3.83;3.60;;;;;;;13.78;79.59;102381.66;4973107;28;20034;-84
2023/06/05 07:57:17;;;;;;;11.70;4.00;;;;;;;13.78;79.57;102382.50;4975603;28;20349;-84
2023/06/05 07:59:43;;;;;;;4.00;3.70;;;;;;;13.83;79.68;102382.38;4992687;28;20557;-84
2023/06/05 08:02:08;;;;;;;3.85;3.50;;;;;;;13.85;78.86;102369.19;4976881;28;20117;-84
2023/06/05 08:04:33;;;;;;;3.92;3.63;;;;;;;13.87;78.68;102376.09;4974293;28;20034;-84
2023/06/05 08:06:59;;;;;;;6.93;3.58;;;;;;;13.90;79.02;102383.03;4963375;28;20058;-84
2023/06/05 08:09:25;;;;;;;6.90;3.63;;;;;;;13.99;79.70;102383.66;4973607;28;20262;-84
2023/06/05 08:11:50;;;;;;;5.10;3.63;;;;;;;13.98;79.09;102374.00;4972421;28;20349;-84
2023/06/05 08:14:15;;;;;;;4.10;3.75;;;;;;;14.07;79.21;102379.91;4991201;28;20133;-84
2023/06/05 08:16:41;;;;;;;4.78;3.92;;;;;;;14.06;78.59;102379.06;4976373;28;20285;-84
2023/06/05 08:19:06;;;;;;;4.72;3.88;;;;;;;14.05;77.86;102381.75;4985837;28;20090;-84
2023/06/05 08:21:33;;;;;;;6.63;3.42;;;;;;;14.06;78.03;102383.44;4977893;28;20115;-84
2023/06/05 08:23:58;;;;;;;4.78;3.63;;;;;;;14.02;76.65;102386.19;4970307;28;20022;-84
2023/06/05 08:26:24;;;;;;;4.88;3.63;;;;;;;14.06;77.00;102375.53;4987310;28;20413;-84
2023/06/05 08:28:50;;;;;;;6.50;3.58;;;;;;;14.09;76.97;102378.09;4972772;28;20053;-83
2023/06/05 08:31:15;;;;;;;3.60;3.30;;;;;;;14.17;77.25;102370.78;4968835;28;20098;-84
2023/06/05 08:33:42;;;;;;;7.20;3.40;;;;;;;14.26;76.38;102374.91;4972210;28;20345;-84
2023/06/05 08:36:07;;;;;;;4.40;3.50;;;;;;;14.24;75.75;102382.00;4961515;28;20101;-84
2023/06/05 08:38:34;;;;;;;8.82;4.05;;;;;;;14.22;76.64;102374.16;4953875;28;20057;-83
2023/06/05 08:41:02;;;;;;;6.20;3.80;;;;;;;14.17;75.27;102363.78;4973410;28;20050;-84
2023/06/05 08:43:28;;;;;;;5.07;3.30;;;;;;;14.24;76.51;102367.06;4989252;28;20328;-84
2023/06/05 08:45:55;;;;;;;3.80;3.40;;;;;;;14.35;76.46;102367.59;4953902;28;20042;-84
2023/06/05 08:48:21;;;;;;;5.90;3.40;;;;;;;14.38;74.79;102358.72;4987724;28;20057;-84
2023/06/05 08:50:48;;;;;;;4.53;3.42;;;;;;;14.46;75.64;102363.72;4958703;28;20046;-84
2023/06/05 08:53:16;;;;;;;4.30;3.30;;;;;;;14.53;75.03;102366.13;4993075;28;20100;-84
2023/06/05 08:55:44;;;;;;;4.95;3.90;;;;;;;14.57;75.19;102369.50;4992899;28;20049;-84
2023/06/05 08:58:12;;;;;;;5.85;3.88;;;;;;;14.55;76.07;102366.06;4974854;28;20046;-84
2023/06/05 09:00:38;;;;;;;4.78;3.22;;;;;;;14.58;74.63;102358.09;4976079;28;20380;-84
2023/06/05 09:03:03;;;;;;;3.72;3.25;;;;;;;14.64;74.12;102359.66;4973533;28;20321;-84
2023/06/05 09:05:28;;;;;;;8.13;3.63;;;;;;;14.68;74.30;102356.00;4990381;28;20325;-84
2023/06/05 09:07:54;;;;;;;3.83;3.60;;;;;;;14.74;74.26;102355.81;4991309;28;20157;-84
2023/06/05 09:10:29;;;;;;;6.45;3.60;;;;;;;14.80;73.53;102355.59;4980852;28;20210;-84
2023/06/05 09:13:00;;;;;;;3.67;3.38;;;;;;;14.87;73.54;102356.25;4986024;28;20290;-84
2023/06/05 09:15:28;;;;;;;3.90;3.50;;;;;;;14.92;74.32;102354.31;4971328;28;20026;-84
2023/06/05 09:18:10;;;;;;;3.72;3.42;;;;;;;14.98;73.07;102352.31;4984181;28;20112;-84
2023/06/05 09:20:38;;;;;;;5.22;3.90;;;;;;;15.08;72.88;102355.50;4986012;28;20344;-84
2023/06/05 09:23:20;;;;;;;4.20;3.80;;;;;;;15.11;72.02;102352.72;4996114;28;20347;-84
2023/06/05 09:25:50;;;;;;;5.95;3.15;;;;;;;15.16;71.87;102357.88;4989210;28;20037;-84
2023/06/05 09:28:16;;;;;;;4.55;3.28;;;;;;;15.19;71.24;102360.41;4989158;28;20337;-84
2023/06/05 09:31:02;;;;;;;3.85;3.33;;;;;;;15.17;70.78;102354.28;4990618;28;20034;-84
2023/06/05 09:33:29;;;;;;;3.47;3.20;;;;;;;15.22;71.27;102347.06;4988738;28;20046;-84
2023/06/05 09:36:09;;;;;;;3.83;3.13;;;;;;;15.30;70.55;102347.66;4988351;28;20038;-84
2023/06/05 09:38:36;;;;;;;3.58;3.28;;;;;;;15.38;70.53;102343.88;4989317;28;20042;-84
2023/06/05 09:41:14;;;;;;;3.53;3.10;;;;;;;15.47;70.39;102356.75;4971918;28;20034;-84
2023/06/05 09:43:39;;;;;;;3.55;3.20;;;;;;;15.54;70.78;102340.63;4976534;28;20074;-84
2023/06/05 09:46:15;;;;;;;6.20;3.42;;;;;;;15.60;68.59;102354.50;4988031;28;20381;-84
2023/06/05 09:48:45;;;;;;;4.68;3.00;;;;;;;15.65;68.49;102349.91;4987331;28;20322;-84
2023/06/05 09:51:13;;;;;;;3.45;2.95;;;;;;;15.64;68.01;102345.53;4986757;28;20061;-84
2023/06/05 09:53:50;;;;;;;4.57;3.60;;;;;;;15.59;67.56;102356.28;4988559;28;20038;-84
2023/06/05 09:56:18;;;;;;;5.82;3.22;;;;;;;15.64;68.61;102349.03;4987379;28;20023;-84
2023/06/05 09:58:49;;;;;;;6.03;3.60;;;;;;;15.67;66.86;102350.72;4987220;28;20376;-84
2023/06/05 10:01:22;;;;;;;3.38;3.17;;;;;;;15.76;67.92;102342.47;4971484;28;20097;-84
2023/06/05 10:04:00;;;;;;;3.65;3.33;;;;;;;15.76;66.21;102347.75;4988182;28;20039;-84
2023/06/05 10:06:28;;;;;;;4.78;3.53;;;;;;;15.85;66.63;102350.03;4988909;28;20421;-84
2023/06/05 10:08:55;;;;;;;3.73;3.07;;;;;;;15.91;67.00;102341.00;4972852;28;20037;-84
2023/06/05 10:11:23;;;;;;;3.33;3.13;;;;;;;15.98;65.81;102341.63;4988761;28;20102;-84
2023/06/05 10:13:49;;;;;;;4.60;3.17;;;;;;;16.02;66.38;102332.66;4970858;28;20037;-84
2023/06/05 10:16:17;;;;;;;4.68;3.17;;;;;;;16.07;66.65;102333.34;4970591;28;20046;-84
2023/06/05 10:18:46;;;;;;;3.55;3.22;;;;;;;16.13;65.46;102330.44;4988874;28;20352;-84
2023/06/05 10:21:16;;;;;;;3.67;3.17;;;;;;;16.15;66.30;102333.88;4986800;28;20039;-84
2023/06/05 10:23:52;;;;;;;4.13;3.20;;;;;;;16.24;66.23;102328.22;4990940;28;20046;-84
2023/06/05 10:26:27;;;;;;;5.93;3.30;;;;;;;16.23;65.48;102326.50;4988146;28;20093;-84
2023/06/05 10:29:00;;;;;;;3.83;3.00;;;;;;;16.32;65.34;102333.22;4971709;28;20034;-84
2023/06/05 10:31:40;;;;;;;4.95;3.17;;;;;;;16.39;64.79;102325.88;4970204;28;20046;-84
2023/06/05 10:34:28;;;;;;;4.10;3.55;;;;;;;16.48;65.19;102325.47;4988758;28;20036;-84
2023/06/05 10:37:21;;;;;;;4.65;3.53;;;;;;;16.50;64.44;102326.31;4972933;28;20046;-84
2023/06/05 10:39:48;;;;;;;3.58;3.28;;;;;;;16.58;63.02;102328.63;4987309;28;20061;-84
2023/06/05 10:42:26;;;;;;;4.28;3.85;;;;;;;16.62;63.35;102319.63;4989445;28;20084;-84
2023/06/05 10:44:52;;;;;;;4.30;3.63;;;;;;;16.69;64.67;102324.56;4982625;28;20555;-84
2023/06/05 10:47:32;;;;;;;11.15;4.10;;;;;;;16.72;63.08;102323.59;4966070;28;20045;-84
2023/06/05 10:50:33;;;;;;;3.97;3.67;;;;;;;16.67;61.47;102328.22;4980035;28;20325;-84
2023/06/05 10:52:59;;;;;;;4.07;3.55;;;;;;;16.70;62.59;102315.72;4889803;29;20453;-84
2023/06/05 10:55:25;;;;;;;5.13;3.88;;;;;;;16.79;63.29;102311.81;4946243;28;20050;-84
2023/06/05 10:58:10;;;;;;;5.43;4.15;;;;;;;16.88;63.71;102318.50;4982092;28;20453;-85
2023/06/05 11:00:38;;;;;;;4.60;4.20;;;;;;;16.90;62.67;102321.97;4981672;28;20038;-84
2023/06/05 11:03:05;;;;;;;4.28;3.95;;;;;;;16.92;62.57;102312.19;4974616;28;20341;-84
2023/06/05 11:05:31;;;;;;;5.00;4.50;;;;;;;16.95;61.75;102316.47;4999133;28;20272;-84
2023/06/05 11:08:13;;;;;;;5.85;4.07;;;;;;;16.98;61.29;102313.69;4997248;28;20046;-84
2023/06/05 11:11:05;;;;;;;5.60;4.05;;;;;;;17.01;61.42;102309.13;4991783;28;20108;-84
2023/06/05 11:13:56;;;;;;;4.53;3.97;;;;;;;17.09;61.18;102311.41;4992234;28;20224;-84
2023/06/05 11:16:30;;;;;;;5.30;4.00;;;;;;;17.12;60.66;102303.34;4996167;28;20112;-84
2023/06/05 11:19:15;;;;;;;6.45;3.95;;;;;;;17.17;61.85;102303.13;4988743;28;20049;-84
2023/06/05 11:22:11;;;;;;;5.07;4.63;;;;;;;17.25;60.78;102306.31;4984203;28;20046;-84
2023/06/05 11:24:37;;;;;;;7.32;4.68;;;;;;;17.26;61.41;102305.34;4990697;28;20043;-84
2023/06/05 11:27:08;;;;;;;8.40;4.80;;;;;;;17.26;60.18;102297.41;4981064;28;20038;-84